createdAt,value
2019-04-22T00:00:40.442Z,1004.72
2019-04-22T00:01:35.038Z,1004.66
2019-04-22T00:02:40.068Z,1004.65
2019-04-22T00:03:43.471Z,1004.64
2019-04-22T00:04:47.549Z,1004.64
2019-04-22T00:05:54.993Z,1004.63
2019-04-22T00:07:01.332Z,1004.61
2019-04-22T00:08:03.767Z,1004.56
2019-04-22T00:09:07.065Z,1004.51
2019-04-22T00:10:09.644Z,1004.58
2019-04-22T00:11:04.885Z,1004.53
2019-04-22T00:12:12.354Z,1004.55
2019-04-22T00:13:00.904Z,1004.56
2019-04-22T00:14:15.063Z,1004.52
2019-04-22T00:15:01.931Z,1004.51
2019-04-22T00:15:58.426Z,1004.47
2019-04-22T00:17:08.621Z,1004.47
2019-04-22T00:20:04.356Z,1004.44
2019-04-22T00:21:04.870Z,1004.40
2019-04-22T00:22:03.243Z,1004.43
2019-04-22T00:22:56.655Z,1004.45
2019-04-22T00:24:06.128Z,1004.39
2019-04-22T00:25:01.131Z,1004.39
2019-04-22T00:26:01.906Z,1004.44
2019-04-22T00:27:08.305Z,1004.35
2019-04-22T00:28:06.669Z,1004.44
2019-04-22T00:29:21.274Z,1004.35
2019-04-22T00:30:07.938Z,1004.38
2019-04-22T00:31:03.134Z,1004.33
2019-04-22T00:31:59.631Z,1004.31
2019-04-22T00:33:03.423Z,1004.28
2019-04-22T00:33:58.883Z,1004.32
2019-04-22T00:34:59.326Z,1004.31
2019-04-22T00:36:01.184Z,1004.31
2019-04-22T00:38:08.967Z,1004.34
2019-04-22T00:39:12.478Z,1004.31
2019-04-22T00:40:03.162Z,1004.31
2019-04-22T00:41:00.607Z,1004.25
2019-04-22T00:42:01.769Z,1004.28
2019-04-22T00:42:58.752Z,1004.31
2019-04-22T00:44:02.999Z,1004.24
2019-04-22T00:45:59.093Z,1004.26
2019-04-22T00:47:00.683Z,1004.26
2019-04-22T00:48:00.720Z,1004.21
2019-04-22T00:49:45.378Z,1004.22
2019-04-22T00:50:12.315Z,1004.14
2019-04-22T00:51:06.347Z,1004.20
2019-04-22T00:52:03.313Z,1004.19
2019-04-22T00:53:03.866Z,1004.17
2019-04-22T00:54:01.022Z,1004.14
2019-04-22T00:55:06.099Z,1004.17
2019-04-22T00:56:00.547Z,1004.18
2019-04-22T00:57:05.492Z,1004.18
2019-04-22T00:58:06.119Z,1004.18
2019-04-22T00:59:04.426Z,1004.18
2019-04-22T01:00:01.419Z,1004.17
2019-04-22T01:01:04.661Z,1004.12
2019-04-22T01:02:02.001Z,1004.11
2019-04-22T01:03:07.495Z,1004.19
2019-04-22T01:04:07.465Z,1004.15
2019-04-22T01:05:04.039Z,1004.08
2019-04-22T01:06:08.017Z,1004.17
2019-04-22T01:07:00.760Z,1004.16
2019-04-22T01:08:04.032Z,1004.17
2019-04-22T01:09:17.137Z,1004.21
2019-04-22T01:11:04.498Z,1004.10
2019-04-22T01:12:04.673Z,1004.09
2019-04-22T01:12:59.800Z,1004.07
2019-04-22T01:14:01.384Z,1004.07
2019-04-22T01:15:05.811Z,1004.09
2019-04-22T01:16:09.430Z,1004.03
2019-04-22T01:16:59.658Z,1004.03
2019-04-22T01:17:57.882Z,1004.02
2019-04-22T01:18:58.927Z,1003.96
2019-04-22T01:21:58.462Z,1003.96
2019-04-22T01:22:58.921Z,1003.96
2019-04-22T01:23:52.144Z,1003.97
2019-04-22T01:24:57.607Z,1003.93
2019-04-22T01:25:55.131Z,1003.96
2019-04-22T01:26:49.281Z,1003.93
2019-04-22T01:27:48.622Z,1003.97
2019-04-22T01:28:50.507Z,1003.90
2019-04-22T01:29:46.297Z,1003.87
2019-04-22T01:30:48.204Z,1003.86
2019-04-22T01:31:37.154Z,1003.81
2019-04-22T01:32:41.255Z,1003.87
2019-04-22T01:33:44.126Z,1003.85
2019-04-22T01:34:51.447Z,1003.79
2019-04-22T01:35:53.430Z,1003.93
2019-04-22T01:36:56.061Z,1003.84
2019-04-22T01:37:54.657Z,1003.84
2019-04-22T01:38:58.305Z,1003.82
2019-04-22T01:39:57.293Z,1003.84
2019-04-22T01:41:04.578Z,1003.81
2019-04-22T01:42:10.482Z,1003.82
2019-04-22T01:43:08.691Z,1003.80
2019-04-22T01:44:15.848Z,1003.81
2019-04-22T01:45:02.628Z,1003.76
2019-04-22T01:46:06.526Z,1003.75
2019-04-22T01:47:00.045Z,1003.75
2019-04-22T01:47:57.780Z,1003.73
2019-04-22T01:49:05.597Z,1003.73
2019-04-22T01:49:59.154Z,1003.73
2019-04-22T01:50:54.889Z,1003.76
2019-04-22T01:52:05.189Z,1003.76
2019-04-22T01:53:06.307Z,1003.77
2019-04-22T01:54:03.935Z,1003.73
2019-04-22T01:55:03.880Z,1003.75
2019-04-22T01:56:06.005Z,1003.70
2019-04-22T01:57:02.154Z,1003.70
2019-04-22T01:57:59.908Z,1003.72
2019-04-22T01:58:50.210Z,1003.67
2019-04-22T01:59:51.461Z,1003.65
2019-04-22T02:01:02.262Z,1003.75
2019-04-22T02:03:08.694Z,1003.61
2019-04-22T02:04:01.195Z,1003.69
2019-04-22T02:05:10.706Z,1003.71
2019-04-22T02:06:07.257Z,1003.62
2019-04-22T02:07:03.959Z,1003.69
2019-04-22T02:08:09.736Z,1003.70
2019-04-22T02:09:09.414Z,1003.67
2019-04-22T02:10:07.450Z,1003.64
2019-04-22T02:11:03.961Z,1003.62
2019-04-22T02:12:00.478Z,1003.67
2019-04-22T02:13:01.978Z,1003.65
2019-04-22T02:14:57.911Z,1003.61
2019-04-22T02:15:58.702Z,1003.53
2019-04-22T02:17:01.284Z,1003.55
2019-04-22T02:18:01.718Z,1003.54
2019-04-22T02:19:02.634Z,1003.53
2019-04-22T02:20:06.742Z,1003.51
2019-04-22T02:21:03.175Z,1003.44
2019-04-22T02:22:00.631Z,1003.49
2019-04-22T02:23:17.611Z,1003.47
2019-04-22T02:24:06.999Z,1003.48
2019-04-22T02:25:06.744Z,1003.47
2019-04-22T02:26:04.141Z,1003.47
2019-04-22T02:27:00.322Z,1003.45
2019-04-22T02:28:05.174Z,1003.45
2019-04-22T02:28:55.212Z,1003.44
2019-04-22T02:29:58.357Z,1003.49
2019-04-22T02:31:23.225Z,1003.44
2019-04-22T02:32:17.167Z,1003.42
2019-04-22T02:34:13.670Z,1003.41
2019-04-22T02:35:05.729Z,1003.33
2019-04-22T02:36:16.651Z,1003.36
2019-04-22T02:37:04.880Z,1003.41
2019-04-22T02:38:10.382Z,1003.38
2019-04-22T02:39:07.610Z,1003.35
2019-04-22T02:42:13.194Z,1003.31
2019-04-22T02:43:12.643Z,1003.38
2019-04-22T02:44:12.179Z,1003.29
2019-04-22T02:44:58.415Z,1003.30
2019-04-22T02:48:10.410Z,1003.24
2019-04-22T02:49:11.794Z,1003.24
2019-04-22T02:51:11.163Z,1003.22
2019-04-22T02:51:59.685Z,1003.16
2019-04-22T02:53:13.870Z,1003.25
2019-04-22T02:55:10.199Z,1003.12
2019-04-22T02:56:12.153Z,1003.16
2019-04-22T02:57:18.864Z,1003.09
2019-04-22T02:58:05.936Z,1003.12
2019-04-22T03:00:18.101Z,1003.08
2019-04-22T03:02:03.080Z,1003.15
2019-04-22T03:03:27.600Z,1003.07
2019-04-22T03:04:09.657Z,1003.10
2019-04-22T03:06:56.004Z,1003.06
2019-04-22T03:08:06.765Z,1003.08
2019-04-22T03:10:18.764Z,1003.05
2019-04-22T03:11:16.761Z,1003.09
2019-04-22T03:12:11.479Z,1003.08
2019-04-22T03:13:08.933Z,1003.01
2019-04-22T03:14:59.890Z,1003.01
2019-04-22T03:16:59.730Z,1002.96
2019-04-22T03:20:06.330Z,1002.95
2019-04-22T03:21:02.318Z,1003.00
2019-04-22T03:21:59.920Z,1002.94
2019-04-22T03:23:16.939Z,1002.95
2019-04-22T03:25:32.324Z,1002.95
2019-04-22T03:27:01.060Z,1002.96
2019-04-22T03:27:58.754Z,1002.92
2019-04-22T03:31:04.191Z,1002.83
2019-04-22T03:33:16.270Z,1002.85
2019-04-22T03:34:57.629Z,1002.84
2019-04-22T03:36:29.597Z,1002.84
2019-04-22T03:37:55.772Z,1002.81
2019-04-22T03:41:13.380Z,1002.74
2019-04-22T03:44:18.938Z,1002.79
2019-04-22T03:45:10.375Z,1002.82
2019-04-22T03:46:06.213Z,1002.81
2019-04-22T03:48:05.529Z,1002.76
2019-04-22T03:51:09.588Z,1002.80
2019-04-22T03:52:16.182Z,1002.75
2019-04-22T03:53:11.135Z,1002.76
2019-04-22T03:54:16.135Z,1002.78
2019-04-22T03:55:09.273Z,1002.76
2019-04-22T03:56:18.519Z,1002.71
2019-04-22T03:59:28.471Z,1002.69
2019-04-22T04:00:15.694Z,1002.74
2019-04-22T04:01:06.735Z,1002.74
2019-04-22T04:04:19.070Z,1002.72
2019-04-22T04:05:01.089Z,1002.69
2019-04-22T04:06:00.161Z,1002.75
2019-04-22T04:09:14.377Z,1002.73
2019-04-22T04:10:15.082Z,1002.73
2019-04-22T04:10:57.979Z,1002.63
2019-04-22T04:12:03.554Z,1002.70
2019-04-22T04:14:12.352Z,1002.67
2019-04-22T04:16:03.184Z,1002.70
2019-04-22T04:17:13.112Z,1002.69
2019-04-22T04:18:06.867Z,1002.72
2019-04-22T04:19:17.271Z,1002.70
2019-04-22T04:22:09.991Z,1002.67
2019-04-22T04:24:22.457Z,1002.65
2019-04-22T04:25:19.249Z,1002.64
2019-04-22T04:26:00.899Z,1002.69
2019-04-22T04:27:20.459Z,1002.70
2019-04-22T04:29:30.390Z,1002.69
2019-04-22T04:31:09.487Z,1002.62
2019-04-22T04:32:18.823Z,1002.64
2019-04-22T04:33:09.282Z,1002.65
2019-04-22T04:34:28.572Z,1002.62
2019-04-22T04:36:23.167Z,1002.66
2019-04-22T04:37:18.166Z,1002.58
2019-04-22T04:40:18.354Z,1002.65
2019-04-22T04:41:10.846Z,1002.57
2019-04-22T04:42:14.031Z,1002.51
2019-04-22T04:42:58.715Z,1002.54
2019-04-22T04:45:24.083Z,1002.61
2019-04-22T04:46:06.380Z,1002.59
2019-04-22T04:49:08.477Z,1002.54
2019-04-22T04:51:16.007Z,1002.59
2019-04-22T04:52:10.435Z,1002.58
2019-04-22T04:53:19.079Z,1002.57
2019-04-22T04:54:14.976Z,1002.55
2019-04-22T04:56:10.810Z,1002.61
2019-04-22T04:57:11.744Z,1002.57
2019-04-22T04:59:16.911Z,1002.56
2019-04-22T05:01:07.374Z,1002.57
2019-04-22T05:02:10.691Z,1002.65
2019-04-22T05:05:20.620Z,1002.57
2019-04-22T05:06:09.415Z,1002.56
2019-04-22T05:07:08.695Z,1002.55
2019-04-22T05:08:29.585Z,1002.53
2019-04-22T05:09:15.050Z,1002.59
2019-04-22T05:10:09.869Z,1002.57
2019-04-22T05:11:11.505Z,1002.56
2019-04-22T05:14:05.406Z,1002.55
2019-04-22T05:16:22.828Z,1002.48
2019-04-22T05:17:03.963Z,1002.48
2019-04-22T05:20:06.644Z,1002.46
2019-04-22T05:21:09.309Z,1002.48
2019-04-22T05:22:05.148Z,1002.45
2019-04-22T05:23:01.835Z,1002.48
2019-04-22T05:24:02.361Z,1002.47
2019-04-22T05:24:58.322Z,1002.42
2019-04-22T05:27:08.691Z,1002.47
2019-04-22T05:27:57.871Z,1002.51
2019-04-22T05:28:57.860Z,1002.45
2019-04-22T05:30:21.507Z,1002.42
2019-04-22T05:31:01.524Z,1002.47
2019-04-22T05:31:59.700Z,1002.44
2019-04-22T05:32:55.755Z,1002.40
2019-04-22T05:34:04.492Z,1002.40
2019-04-22T05:34:59.736Z,1002.46
2019-04-22T05:36:01.505Z,1002.41
2019-04-22T05:37:01.259Z,1002.44
2019-04-22T05:38:04.195Z,1002.42
2019-04-22T05:39:00.193Z,1002.41
2019-04-22T05:40:06.180Z,1002.38
2019-04-22T05:40:56.349Z,1002.37
2019-04-22T05:41:59.375Z,1002.41
2019-04-22T05:42:56.545Z,1002.43
2019-04-22T05:43:58.271Z,1002.44
2019-04-22T05:45:08.885Z,1002.45
2019-04-22T05:46:01.098Z,1002.38
2019-04-22T05:46:56.278Z,1002.43
2019-04-22T05:47:57.527Z,1002.42
2019-04-22T05:49:03.180Z,1002.49
2019-04-22T05:49:54.631Z,1002.37
2019-04-22T05:50:57.687Z,1002.42
2019-04-22T05:51:55.055Z,1002.34
2019-04-22T05:52:55.291Z,1002.38
2019-04-22T05:53:57.531Z,1002.39
2019-04-22T05:55:05.377Z,1002.38
2019-04-22T05:55:58.540Z,1002.41
2019-04-22T05:56:53.373Z,1002.35
2019-04-22T05:57:59.132Z,1002.45
2019-04-22T05:59:02.511Z,1002.40
2019-04-22T05:59:58.918Z,1002.39
2019-04-22T06:01:20.695Z,1002.43
2019-04-22T06:02:02.886Z,1002.38
2019-04-22T06:03:06.493Z,1002.43
2019-04-22T06:05:01.070Z,1002.49
2019-04-22T06:05:55.039Z,1002.44
2019-04-22T06:06:54.084Z,1002.42
2019-04-22T06:08:02.397Z,1002.48
2019-04-22T06:09:00.505Z,1002.43
2019-04-22T06:10:00.256Z,1002.44
2019-04-22T06:10:58.089Z,1002.44
2019-04-22T06:11:53.211Z,1002.39
2019-04-22T06:12:54.851Z,1002.38
2019-04-22T06:13:53.326Z,1002.44
2019-04-22T06:14:58.100Z,1002.45
2019-04-22T06:15:57.135Z,1002.41
2019-04-22T06:16:58.350Z,1002.36
2019-04-22T06:18:02.209Z,1002.38
2019-04-22T06:19:00.887Z,1002.38
2019-04-22T06:19:57.574Z,1002.39
2019-04-22T06:20:59.412Z,1002.39
2019-04-22T06:21:57.923Z,1002.38
2019-04-22T06:22:56.801Z,1002.30
2019-04-22T06:24:04.883Z,1002.34
2019-04-22T06:25:01.212Z,1002.28
2019-04-22T06:28:05.365Z,1002.31
2019-04-22T06:30:01.834Z,1002.40
2019-04-22T06:32:17.556Z,1002.36
2019-04-22T06:33:05.935Z,1002.38
2019-04-22T06:34:06.010Z,1002.37
2019-04-22T06:35:07.983Z,1002.36
2019-04-22T06:35:56.255Z,1002.43
2019-04-22T06:37:16.012Z,1002.41
2019-04-22T06:38:20.815Z,1002.38
2019-04-22T06:38:59.029Z,1002.37
2019-04-22T06:39:52.337Z,1002.46
2019-04-22T06:41:05.734Z,1002.39
2019-04-22T06:42:00.773Z,1002.43
2019-04-22T06:43:03.185Z,1002.38
2019-04-22T06:44:04.787Z,1002.39
2019-04-22T06:45:02.845Z,1002.46
2019-04-22T06:45:51.863Z,1002.38
2019-04-22T06:47:00.670Z,1002.49
2019-04-22T06:48:56.339Z,1002.40
2019-04-22T06:49:57.337Z,1002.40
2019-04-22T06:50:52.826Z,1002.42
2019-04-22T06:52:05.983Z,1002.41
2019-04-22T06:52:56.714Z,1002.43
2019-04-22T06:53:58.648Z,1002.38
2019-04-22T06:55:03.898Z,1002.37
2019-04-22T06:57:00.716Z,1002.43
2019-04-22T06:58:01.526Z,1002.43
2019-04-22T06:58:53.947Z,1002.43
2019-04-22T06:59:58.757Z,1002.36
2019-04-22T07:01:18.102Z,1002.41
2019-04-22T07:02:06.343Z,1002.40
2019-04-22T07:03:18.992Z,1002.45
2019-04-22T07:04:56.549Z,1002.45
2019-04-22T07:06:01.701Z,1002.42
2019-04-22T07:08:14.112Z,1002.45
2019-04-22T07:09:14.053Z,1002.37
2019-04-22T07:09:54.378Z,1002.41
2019-04-22T07:10:57.719Z,1002.40
2019-04-22T07:11:58.774Z,1002.40
2019-04-22T07:12:56.591Z,1002.35
2019-04-22T07:14:55.908Z,1002.26
2019-04-22T07:16:13.295Z,1002.42
2019-04-22T07:17:00.888Z,1002.27
2019-04-22T07:17:55.006Z,1002.32
2019-04-22T07:18:54.997Z,1002.28
2019-04-22T07:19:58.452Z,1002.37
2019-04-22T07:20:58.281Z,1002.35
2019-04-22T07:21:57.227Z,1002.37
2019-04-22T07:22:54.910Z,1002.37
2019-04-22T07:24:17.882Z,1002.35
2019-04-22T07:24:58.227Z,1002.29
2019-04-22T07:25:56.546Z,1002.37
2019-04-22T07:27:02.973Z,1002.29
2019-04-22T07:28:56.353Z,1002.33
2019-04-22T07:30:03.090Z,1002.34
2019-04-22T07:31:01.982Z,1002.37
2019-04-22T07:32:04.182Z,1002.38
2019-04-22T07:33:14.490Z,1002.23
2019-04-22T07:34:03.801Z,1002.29
2019-04-22T07:34:59.301Z,1002.28
2019-04-22T07:36:06.442Z,1002.31
2019-04-22T07:37:53.886Z,1002.33
2019-04-22T07:39:01.586Z,1002.33
2019-04-22T07:39:50.241Z,1002.33
2019-04-22T07:42:01.125Z,1002.22
2019-04-22T07:42:57.137Z,1002.22
2019-04-22T07:44:55.162Z,1002.27
2019-04-22T07:45:55.035Z,1002.26
2019-04-22T07:48:04.419Z,1002.26
2019-04-22T07:49:05.245Z,1002.24
2019-04-22T07:49:59.224Z,1002.29
2019-04-22T07:51:57.023Z,1002.18
2019-04-22T07:52:51.804Z,1002.24
2019-04-22T07:53:55.837Z,1002.24
2019-04-22T07:54:56.897Z,1002.25
2019-04-22T07:57:07.276Z,1002.24
2019-04-22T07:57:51.983Z,1002.19
2019-04-22T07:58:55.570Z,1002.26
2019-04-22T08:00:01.010Z,1002.22
2019-04-22T08:00:55.911Z,1002.16
2019-04-22T08:01:55.921Z,1002.24
2019-04-22T08:02:59.698Z,1002.19
2019-04-22T08:06:05.369Z,1002.27
2019-04-22T08:06:58.949Z,1002.24
2019-04-22T08:08:02.592Z,1002.26
2019-04-22T08:09:01.832Z,1002.19
2019-04-22T08:10:24.326Z,1002.19
2019-04-22T08:10:59.438Z,1002.11
2019-04-22T08:11:53.971Z,1002.14
2019-04-22T08:13:53.298Z,1002.07
2019-04-22T08:15:04.283Z,1002.16
2019-04-22T08:15:58.714Z,1002.10
2019-04-22T08:17:01.011Z,1002.14
2019-04-22T08:18:06.916Z,1002.15
2019-04-22T08:19:03.114Z,1002.12
2019-04-22T08:19:57.769Z,1002.21
2019-04-22T08:20:58.877Z,1002.18
2019-04-22T08:21:57.013Z,1002.17
2019-04-22T08:23:01.199Z,1002.19
2019-04-22T08:23:57.001Z,1002.12
2019-04-22T08:24:56.152Z,1002.16
2019-04-22T08:25:55.489Z,1002.16
2019-04-22T08:27:01.285Z,1002.13
2019-04-22T08:27:57.083Z,1002.14
2019-04-22T08:28:58.604Z,1002.19
2019-04-22T08:30:11.890Z,1002.13
2019-04-22T08:30:55.082Z,1002.16
2019-04-22T08:32:53.232Z,1002.05
2019-04-22T08:34:00.643Z,1002.11
2019-04-22T08:34:56.470Z,1002.06
2019-04-22T08:36:09.034Z,1002.06
2019-04-22T08:37:24.122Z,1002.09
2019-04-22T08:40:03.585Z,1002.12
2019-04-22T08:41:00.527Z,1002.12
2019-04-22T08:41:51.735Z,1002.11
2019-04-22T08:43:11.516Z,1002.11
2019-04-22T08:44:02.265Z,1002.10
2019-04-22T08:45:56.872Z,1002.10
2019-04-22T08:47:04.719Z,1002.04
2019-04-22T08:47:59.075Z,1002.11
2019-04-22T08:48:54.260Z,1001.95
2019-04-22T08:50:04.852Z,1002.04
2019-04-22T08:51:00.782Z,1002.00
2019-04-22T08:51:58.881Z,1001.94
2019-04-22T08:53:02.654Z,1002.01
2019-04-22T08:54:00.216Z,1002.00
2019-04-22T08:54:57.375Z,1001.97
2019-04-22T08:56:07.738Z,1001.95
2019-04-22T08:56:49.397Z,1001.96
2019-04-22T08:58:18.609Z,1001.96
2019-04-22T08:59:01.815Z,1001.97
2019-04-22T08:59:57.438Z,1001.94
2019-04-22T09:01:02.587Z,1001.95
2019-04-22T09:02:01.043Z,1001.93
2019-04-22T09:02:59.547Z,1001.91
2019-04-22T09:03:58.033Z,1001.95
2019-04-22T09:04:56.930Z,1001.93
2019-04-22T09:07:07.710Z,1001.88
2019-04-22T09:08:05.939Z,1001.85
2019-04-22T09:09:00.917Z,1001.80
2019-04-22T09:09:55.290Z,1001.86
2019-04-22T09:11:00.260Z,1001.78
2019-04-22T09:11:54.747Z,1001.77
2019-04-22T09:13:55.136Z,1001.74
2019-04-22T09:14:53.649Z,1001.79
2019-04-22T09:15:58.992Z,1001.82
2019-04-22T09:17:02.370Z,1001.71
2019-04-22T09:17:56.049Z,1001.69
2019-04-22T09:18:56.109Z,1001.67
2019-04-22T09:19:47.814Z,1001.68
2019-04-22T09:21:01.415Z,1001.70
2019-04-22T09:22:53.691Z,1001.64
2019-04-22T09:24:00.761Z,1001.62
2019-04-22T09:24:55.157Z,1001.70
2019-04-22T09:25:57.573Z,1001.70
2019-04-22T09:26:54.293Z,1001.73
2019-04-22T09:28:10.319Z,1001.60
2019-04-22T09:29:03.284Z,1001.59
2019-04-22T09:29:53.713Z,1001.63
2019-04-22T09:30:56.226Z,1001.61
2019-04-22T09:32:00.256Z,1001.67
2019-04-22T09:33:06.399Z,1001.58
2019-04-22T09:33:49.243Z,1001.64
2019-04-22T09:34:51.980Z,1001.62
2019-04-22T09:36:01.816Z,1001.53
2019-04-22T09:37:01.514Z,1001.54
2019-04-22T09:38:00.263Z,1001.50
2019-04-22T09:38:56.510Z,1001.53
2019-04-22T09:40:02.870Z,1001.61
2019-04-22T09:40:52.501Z,1001.56
2019-04-22T09:41:51.154Z,1001.62
2019-04-22T09:42:56.391Z,1001.55
2019-04-22T09:43:57.002Z,1001.51
2019-04-22T09:44:56.604Z,1001.54
2019-04-22T09:45:52.960Z,1001.50
2019-04-22T09:46:53.740Z,1001.54
2019-04-22T09:49:03.466Z,1001.52
2019-04-22T09:50:12.658Z,1001.54
2019-04-22T09:50:53.622Z,1001.61
2019-04-22T09:51:59.997Z,1001.57
2019-04-22T09:52:54.731Z,1001.53
2019-04-22T09:54:02.347Z,1001.56
2019-04-22T09:55:00.262Z,1001.58
2019-04-22T09:55:56.748Z,1001.52
2019-04-22T09:56:56.514Z,1001.44
2019-04-22T09:57:52.083Z,1001.49
2019-04-22T09:58:55.709Z,1001.50
2019-04-22T10:01:03.046Z,1001.44
2019-04-22T10:02:10.122Z,1001.43
2019-04-22T10:05:00.057Z,1001.25
2019-04-22T10:06:07.502Z,1001.40
2019-04-22T10:06:54.255Z,1001.19
2019-04-22T10:09:24.070Z,1001.29
2019-04-22T10:10:58.264Z,1001.25
2019-04-22T10:11:53.471Z,1001.29
2019-04-22T10:13:00.271Z,1001.30
2019-04-22T10:14:55.835Z,1001.15
2019-04-22T10:15:57.298Z,1001.24
2019-04-22T10:16:54.021Z,1001.14
2019-04-22T10:17:57.545Z,1001.17
2019-04-22T10:19:58.245Z,1000.94
2019-04-22T10:20:57.290Z,1001.16
2019-04-22T10:21:57.134Z,1001.20
2019-04-22T10:22:53.244Z,1001.14
2019-04-22T10:24:01.749Z,1001.06
2019-04-22T10:25:01.706Z,1001.06
2019-04-22T10:25:45.273Z,1001.08
2019-04-22T10:26:50.357Z,1001.11
2019-04-22T10:27:55.214Z,1000.99
2019-04-22T10:29:00.815Z,1000.99
2019-04-22T10:30:00.130Z,1000.96
2019-04-22T10:31:54.388Z,1001.03
2019-04-22T10:32:52.609Z,1000.91
2019-04-22T10:33:46.575Z,1000.93
2019-04-22T10:34:37.913Z,1000.91
2019-04-22T10:35:32.231Z,1000.88
2019-04-22T10:36:27.849Z,1000.85
2019-04-22T10:37:30.021Z,1000.86
2019-04-22T10:38:28.403Z,1000.91
2019-04-22T10:39:39.666Z,1000.80
2019-04-22T10:40:28.386Z,1000.88
2019-04-22T10:41:28.422Z,1000.80
2019-04-22T10:42:27.368Z,1000.73
2019-04-22T10:43:27.605Z,1000.80
2019-04-22T10:44:29.221Z,1000.78
2019-04-22T10:45:28.229Z,1000.87
2019-04-22T10:46:28.381Z,1000.75
2019-04-22T10:47:27.993Z,1000.70
2019-04-22T10:48:28.329Z,1000.74
2019-04-22T10:49:28.798Z,1000.69
2019-04-22T10:50:28.210Z,1000.65
2019-04-22T10:51:28.548Z,1000.65
2019-04-22T10:52:27.650Z,1000.74
2019-04-22T10:53:27.264Z,1000.63
2019-04-22T10:54:29.396Z,1000.71
2019-04-22T10:55:27.533Z,1000.77
2019-04-22T10:56:27.349Z,1000.60
2019-04-22T10:57:27.945Z,1000.66
2019-04-22T10:58:28.892Z,1000.69
2019-04-22T10:59:27.187Z,1000.58
2019-04-22T11:00:29.311Z,1000.51
2019-04-22T11:01:29.595Z,1000.67
2019-04-22T11:02:27.688Z,1000.63
2019-04-22T11:03:28.286Z,1000.66
2019-04-22T11:04:28.059Z,1000.42
2019-04-22T11:05:28.250Z,1000.50
2019-04-22T11:06:33.653Z,1000.36
2019-04-22T11:07:38.656Z,1000.57
2019-04-22T11:08:37.111Z,1000.54
2019-04-22T11:09:29.120Z,1000.48
2019-04-22T11:10:45.572Z,1000.55
2019-04-22T11:11:43.942Z,1000.47
2019-04-22T11:12:32.297Z,1000.55
2019-04-22T11:13:28.374Z,1000.51
2019-04-22T11:14:28.502Z,1000.50
2019-04-22T11:15:28.581Z,1000.42
2019-04-22T11:16:29.693Z,1000.44
2019-04-22T11:17:27.038Z,1000.31
2019-04-22T11:18:29.456Z,1000.33
2019-04-22T11:19:29.735Z,1000.29
2019-04-22T11:20:26.978Z,1000.38
2019-04-22T11:21:29.580Z,1000.27
2019-04-22T11:22:31.641Z,1000.24
2019-04-22T11:23:28.814Z,1000.28
2019-04-22T11:24:28.514Z,1000.12
2019-04-22T11:25:27.750Z,1000.22
2019-04-22T11:26:28.232Z,1000.15
2019-04-22T11:27:28.705Z,1000.10
2019-04-22T11:28:27.782Z,1000.15
2019-04-22T11:29:27.838Z,1000.24
2019-04-22T11:30:28.369Z,1000.20
2019-04-22T11:31:28.195Z,1000.20
2019-04-22T11:32:26.959Z,1000.23
2019-04-22T11:33:26.881Z,1000.20
2019-04-22T11:34:29.064Z,1000.23
2019-04-22T11:35:27.960Z,1000.21
2019-04-22T11:36:29.150Z,1000.17
2019-04-22T11:37:28.171Z,1000.12
2019-04-22T11:38:26.943Z,1000.22
2019-04-22T11:39:30.383Z,1000.15
2019-04-22T11:40:34.939Z,1000.15
2019-04-22T11:41:29.119Z,1000.04
2019-04-22T11:42:28.132Z,999.95
2019-04-22T11:43:28.351Z,1000.08
2019-04-22T11:44:30.649Z,1000.09
2019-04-22T11:45:27.118Z,1000.16
2019-04-22T11:46:29.518Z,999.93
2019-04-22T11:47:27.473Z,1000.03
2019-04-22T11:48:27.092Z,1000.03
2019-04-22T11:49:27.911Z,999.99
2019-04-22T11:50:27.960Z,1000.05
2019-04-22T11:51:27.585Z,999.99
2019-04-22T11:52:26.972Z,999.97
2019-04-22T11:53:27.045Z,999.87
2019-04-22T11:54:28.876Z,999.90
2019-04-22T11:55:26.877Z,999.88
2019-04-22T11:56:29.384Z,999.94
2019-04-22T11:57:26.613Z,999.93
2019-04-22T11:58:26.645Z,999.94
2019-04-22T11:59:26.843Z,999.88
2019-04-22T12:00:27.503Z,999.92
2019-04-22T12:01:28.740Z,999.98
2019-04-22T12:02:27.164Z,999.89
2019-04-22T12:03:26.932Z,999.91
2019-04-22T12:04:27.636Z,999.77
2019-04-22T12:05:28.142Z,999.87
2019-04-22T12:06:26.535Z,999.85
2019-04-22T12:07:26.750Z,999.87
2019-04-22T12:08:27.019Z,999.81
2019-04-22T12:09:27.799Z,999.72
2019-04-22T12:10:36.703Z,999.78
2019-04-22T12:11:30.154Z,999.83
2019-04-22T12:12:27.826Z,999.72
2019-04-22T12:13:26.505Z,999.86
2019-04-22T12:14:27.763Z,999.67
2019-04-22T12:15:28.931Z,999.65
2019-04-22T12:16:27.368Z,999.59
2019-04-22T12:17:26.576Z,999.63
2019-04-22T12:18:27.135Z,999.72
2019-04-22T12:19:27.145Z,999.62
2019-04-22T12:20:27.584Z,999.41
2019-04-22T12:21:28.879Z,999.52
2019-04-22T12:22:26.943Z,999.41
2019-04-22T12:23:27.328Z,999.54
2019-04-22T12:24:27.993Z,999.41
2019-04-22T12:25:36.122Z,999.52
2019-04-22T12:26:30.493Z,999.67
2019-04-22T12:27:28.791Z,999.61
2019-04-22T12:28:26.866Z,999.53
2019-04-22T12:29:26.926Z,999.52
2019-04-22T12:30:27.731Z,999.44
2019-04-22T12:31:29.063Z,999.62
2019-04-22T12:32:27.428Z,999.52
2019-04-22T12:33:27.703Z,999.37
2019-04-22T12:34:31.062Z,999.41
2019-04-22T12:35:26.362Z,999.53
2019-04-22T12:36:26.620Z,999.45
2019-04-22T12:37:35.391Z,999.51
2019-04-22T12:38:27.424Z,999.34
2019-04-22T12:39:27.518Z,999.20
2019-04-22T12:40:38.276Z,999.19
2019-04-22T12:41:27.791Z,999.25
2019-04-22T12:42:27.111Z,999.26
2019-04-22T12:43:27.823Z,999.26
2019-04-22T12:44:26.663Z,999.15
2019-04-22T12:45:27.817Z,999.11
2019-04-22T12:46:26.249Z,999.16
2019-04-22T12:47:30.437Z,999.21
2019-04-22T12:48:27.576Z,999.17
2019-04-22T12:49:26.144Z,999.19
2019-04-22T12:50:31.004Z,999.13
2019-04-22T12:51:27.306Z,999.13
2019-04-22T12:52:36.997Z,999.15
2019-04-22T12:53:28.007Z,998.98
2019-04-22T12:54:26.901Z,999.15
2019-04-22T12:55:28.042Z,998.99
2019-04-22T12:56:26.023Z,998.82
2019-04-22T12:57:28.289Z,998.98
2019-04-22T12:58:27.556Z,999.02
2019-04-22T12:59:26.009Z,999.03
2019-04-22T13:00:26.631Z,999.01
2019-04-22T13:01:26.819Z,999.05
2019-04-22T13:02:27.408Z,998.97
2019-04-22T13:03:29.354Z,998.87
2019-04-22T13:04:25.947Z,998.98
2019-04-22T13:05:26.896Z,998.88
2019-04-22T13:06:25.976Z,998.99
2019-04-22T13:07:26.030Z,998.87
2019-04-22T13:08:27.708Z,998.91
2019-04-22T13:09:27.572Z,998.67
2019-04-22T13:10:29.700Z,998.81
2019-04-22T13:11:30.835Z,998.87
2019-04-22T13:12:26.851Z,998.81
2019-04-22T13:13:28.796Z,998.79
2019-04-22T13:14:27.412Z,998.77
2019-04-22T13:15:26.712Z,998.69
2019-04-22T13:16:27.298Z,998.75
2019-04-22T13:17:27.118Z,998.75
2019-04-22T13:18:37.133Z,998.76
2019-04-22T13:19:28.256Z,998.72
2019-04-22T13:20:28.565Z,998.72
2019-04-22T13:21:26.902Z,998.54
2019-04-22T13:22:26.974Z,998.57
2019-04-22T13:23:27.609Z,998.64
2019-04-22T13:24:28.074Z,998.60
2019-04-22T13:25:28.046Z,998.69
2019-04-22T13:26:27.172Z,998.55
2019-04-22T13:27:26.876Z,998.49
2019-04-22T13:28:27.274Z,998.50
2019-04-22T13:29:25.679Z,998.50
2019-04-22T13:30:26.318Z,998.50
2019-04-22T13:31:26.822Z,998.56
2019-04-22T13:32:28.850Z,998.53
2019-04-22T13:33:28.682Z,998.53
2019-04-22T13:34:34.806Z,998.46
2019-04-22T13:35:27.911Z,998.49
2019-04-22T13:36:27.710Z,998.53
2019-04-22T13:37:25.685Z,998.53
2019-04-22T13:38:27.025Z,998.28
2019-04-22T13:39:27.131Z,998.46
2019-04-22T13:40:25.558Z,998.44
2019-04-22T13:41:33.880Z,998.38
2019-04-22T13:42:27.578Z,998.45
2019-04-22T13:43:26.763Z,998.44
2019-04-22T13:44:28.144Z,998.36
2019-04-22T13:45:27.631Z,998.39
2019-04-22T13:46:31.371Z,998.32
2019-04-22T13:47:42.386Z,998.20
2019-04-22T13:48:49.860Z,998.33
2019-04-22T13:49:59.041Z,998.43
2019-04-22T13:51:01.362Z,998.38
2019-04-22T13:52:01.815Z,998.33
2019-04-22T13:54:06.516Z,998.35
2019-04-22T13:54:37.266Z,998.27
2019-04-22T13:55:57.949Z,998.25
2019-04-22T13:56:49.245Z,998.22